Time;durP1;ratioP1;P1;durP2;ratioP2;P2;SDS_P1;SDS_P2;PMS_P1;PMS_P2;Temp;Humidity;BMP_temperature;BMP_pressure;BME280_temperature;BME280_humidity;BME280_pressure;Samples;Min_cycle;Max_cycle;Signal;HPM_P1;HPM_P2
2022/01/12 00:00:16;;;;;;;6.90;3.85;;;3.10;91.20;;;;;;5026271;28;20033;-81
2022/01/12 00:02:41;;;;;;;5.45;3.67;;;3.10;91.20;;;;;;5027397;28;20090;-81
2022/01/12 00:05:07;;;;;;;8.05;4.28;;;3.10;91.50;;;;;;5018365;28;20128;-81
2022/01/12 00:07:33;;;;;;;6.95;4.30;;;3.10;91.20;;;;;;5046193;28;20607;-81
2022/01/12 00:10:02;;;;;;;7.90;4.95;;;3.10;91.20;;;;;;5042243;28;20037;-81
2022/01/12 00:12:28;;;;;;;5.20;4.18;;;3.10;91.20;;;;;;5023333;28;20647;-81
2022/01/12 00:14:54;;;;;;;6.35;4.47;;;3.10;91.20;;;;;;5011764;28;20033;-80
2022/01/12 00:17:19;;;;;;;7.75;4.38;;;3.10;91.20;;;;;;5030900;28;20415;-81
2022/01/12 00:19:45;;;;;;;7.90;4.28;;;3.10;91.30;;;;;;5028673;28;20033;-81
2022/01/12 00:22:12;;;;;;;8.20;4.93;;;3.10;91.20;;;;;;5020258;28;20040;-81
2022/01/12 00:35:32;;;;;;;6.57;3.97;;;3.00;91.20;;;;;;5009827;28;20477;-82
2022/01/12 00:37:58;;;;;;;10.55;5.55;;;3.00;91.30;;;;;;4999690;28;20042;-81
2022/01/12 00:40:26;;;;;;;8.30;4.75;;;3.00;91.30;;;;;;5008382;28;20055;-80
2022/01/12 00:42:52;;;;;;;8.27;5.10;;;3.00;91.30;;;;;;5017581;28;20583;-81
2022/01/12 00:45:18;;;;;;;8.05;4.75;;;3.00;91.30;;;;;;5014635;28;20041;-81
2022/01/12 00:47:44;;;;;;;6.75;4.38;;;3.00;91.30;;;;;;5020613;28;20494;-81
2022/01/12 00:50:10;;;;;;;7.18;4.78;;;3.00;91.30;;;;;;4996760;28;20032;-81
2022/01/12 00:52:36;;;;;;;6.20;4.25;;;3.00;91.70;;;;;;5034804;28;20033;-81
2022/01/12 00:55:02;;;;;;;9.00;4.70;;;3.00;91.30;;;;;;5041554;28;20121;-81
2022/01/12 00:57:28;;;;;;;6.28;4.70;;;3.00;91.30;;;;;;5049241;28;20100;-81
2022/01/12 00:59:53;;;;;;;4.85;3.92;;;3.00;91.30;;;;;;5014292;28;20044;-81
2022/01/12 01:02:19;;;;;;;5.32;4.10;;;3.00;91.30;;;;;;5029711;28;20028;-81
2022/01/12 01:04:45;;;;;;;7.43;4.80;;;3.00;91.30;;;;;;5030988;28;20068;-81
2022/01/12 01:07:11;;;;;;;9.27;4.15;;;3.00;91.30;;;;;;5025997;28;20118;-81
2022/01/12 01:09:41;;;;;;;6.35;4.35;;;3.00;91.30;;;;;;4985656;28;20194;-81
2022/01/12 01:12:08;;;;;;;7.63;4.35;;;2.90;91.30;;;;;;5025549;28;20037;-81
2022/01/12 01:14:45;;;;;;;7.60;4.68;;;2.90;91.30;;;;;;5028904;28;20033;-81
2022/01/12 01:25:31;;;;;;;5.97;4.00;;;2.90;91.30;;;;;;5010963;28;20240;-81
2022/01/12 01:27:56;;;;;;;5.78;3.78;;;2.90;91.30;;;;;;5002281;28;20040;-81
2022/01/12 01:30:22;;;;;;;6.15;4.05;;;2.90;91.30;;;;;;4995343;28;20067;-81
2022/01/12 01:32:49;;;;;;;6.50;3.88;;;2.90;91.30;;;;;;5000603;28;20043;-81
2022/01/12 01:35:15;;;;;;;5.50;3.53;;;2.90;91.30;;;;;;5037344;28;20059;-81
2022/01/12 01:37:41;;;;;;;5.70;4.18;;;2.80;91.30;;;;;;5015572;28;20048;-81
2022/01/12 01:40:11;;;;;;;6.57;4.10;;;2.90;91.30;;;;;;5036657;28;20130;-81
2022/01/12 01:43:06;;;;;;;6.25;4.65;;;2.90;91.30;;;;;;5021009;28;20025;-81
2022/01/12 01:53:43;;;;;;;6.53;3.60;;;2.80;91.30;;;;;;5025593;28;20105;-81
2022/01/12 01:56:09;;;;;;;5.78;3.80;;;2.80;91.30;;;;;;4994042;28;20037;-80
2022/01/12 01:58:38;;;;;;;8.40;4.88;;;2.80;91.30;;;;;;5023862;28;20025;-81
2022/01/12 02:01:04;;;;;;;9.85;5.43;;;2.80;91.30;;;;;;5015661;28;20025;-81
2022/01/12 02:03:30;;;;;;;7.22;4.45;;;2.80;91.30;;;;;;5001826;28;20032;-81
2022/01/12 02:05:56;;;;;;;9.18;5.32;;;2.70;91.30;;;;;;5016550;28;20037;-81
2022/01/12 02:08:22;;;;;;;8.40;5.05;;;2.70;91.30;;;;;;4999035;28;20446;-81
2022/01/12 02:10:58;;;;;;;6.30;4.05;;;2.70;91.40;;;;;;5016385;28;20065;-81
2022/01/12 02:13:24;;;;;;;6.63;3.55;;;2.70;91.40;;;;;;4994629;28;20101;-81
2022/01/12 02:15:51;;;;;;;9.68;4.57;;;2.70;91.40;;;;;;5012700;28;20112;-81
2022/01/12 02:18:30;;;;;;;8.30;4.18;;;2.60;91.40;;;;;;5015544;28;20134;-81
2022/01/12 02:40:25;;;;;;;;;;;2.40;91.30;;;;;;4994635;28;20025;-81
2022/01/12 02:51:13;;;;;;;3.67;2.92;;;2.20;91.30;;;;;;5017917;28;20039;-81
2022/01/12 02:53:40;;;;;;;5.25;3.30;;;2.20;91.40;;;;;;4998902;28;20050;-81
2022/01/12 02:56:10;;;;;;;4.75;3.60;;;2.20;91.40;;;;;;4984011;28;20559;-81
2022/01/12 02:58:36;;;;;;;6.35;3.70;;;2.20;91.40;;;;;;5019371;28;20037;-81
2022/01/12 03:03:37;;;;;;;5.07;3.40;;;2.10;91.40;;;;;;5000491;28;20028;-81
2022/01/12 03:06:06;;;;;;;6.43;4.40;;;2.10;91.40;;;;;;5025106;28;20026;-81
2022/01/12 03:08:38;;;;;;;5.60;3.55;;;2.10;91.40;;;;;;4996748;28;20455;-81
2022/01/12 03:11:05;;;;;;;5.35;3.70;;;2.10;91.50;;;;;;4980541;28;20037;-81
2022/01/12 03:13:31;;;;;;;5.38;3.60;;;2.10;91.50;;;;;;5003502;28;20172;-81
2022/01/12 03:15:57;;;;;;;4.13;2.92;;;2.10;91.50;;;;;;5021903;28;20059;-81
2022/01/12 03:18:23;;;;;;;4.68;3.30;;;2.10;91.50;;;;;;5030243;28;20025;-81
2022/01/12 03:20:49;;;;;;;6.10;3.95;;;2.10;91.50;;;;;;5055525;28;20032;-81
2022/01/12 03:23:15;;;;;;;5.40;3.38;;;2.10;91.50;;;;;;5053300;28;20999;-81
2022/01/12 03:25:42;;;;;;;6.93;4.15;;;2.00;91.40;;;;;;5022968;28;20025;-81
2022/01/12 03:28:07;;;;;;;7.15;4.70;;;2.00;91.50;;;;;;5012872;28;20037;-81
2022/01/12 03:31:02;;;;;;;7.68;4.80;;;2.00;91.50;;;;;;5015568;28;20074;-81
2022/01/12 03:33:50;;;;;;;5.57;3.70;;;2.00;91.50;;;;;;5000733;28;20029;-81
2022/01/12 03:38:57;;;;;;;4.65;3.67;;;2.00;91.50;;;;;;5041969;28;20036;-81
2022/01/12 03:41:24;;;;;;;7.90;4.20;;;2.00;91.50;;;;;;5026731;28;20021;-81
2022/01/12 03:43:49;;;;;;;6.18;3.25;;;2.00;91.50;;;;;;5021395;28;20059;-81
2022/01/12 03:46:17;;;;;;;6.68;4.07;;;2.00;91.50;;;;;;5011154;28;20061;-81
2022/01/12 03:48:42;;;;;;;5.88;4.00;;;1.90;91.50;;;;;;5010349;28;20494;-81
2022/01/12 03:51:08;;;;;;;6.65;3.60;;;1.90;91.50;;;;;;5017240;28;20040;-81
2022/01/12 03:53:34;;;;;;;5.30;4.03;;;1.90;91.50;;;;;;5008756;28;20176;-80
2022/01/12 03:55:59;;;;;;;6.30;4.15;;;1.90;91.50;;;;;;5027285;28;20041;-81
2022/01/12 03:58:25;;;;;;;7.32;4.07;;;1.90;91.50;;;;;;5000509;28;20030;-81
2022/01/12 04:00:51;;;;;;;5.32;3.72;;;1.90;91.50;;;;;;5021873;28;20040;-81
2022/01/12 04:03:17;;;;;;;4.85;3.72;;;1.90;91.60;;;;;;5046772;28;20028;-81
2022/01/12 04:08:22;;;;;;;8.13;4.07;;;1.90;91.60;;;;;;5029057;28;20032;-81
2022/01/12 04:10:53;;;;;;;5.18;3.80;;;1.90;91.60;;;;;;5012417;28;20059;-81
2022/01/12 04:13:19;;;;;;;5.65;3.70;;;1.90;91.60;;;;;;5015512;28;20790;-81
2022/01/12 04:15:48;;;;;;;4.97;3.55;;;1.90;91.60;;;;;;4999744;28;20060;-82
2022/01/12 04:18:14;;;;;;;6.47;3.70;;;1.90;91.60;;;;;;5013599;28;20040;-81
2022/01/12 04:20:46;;;;;;;4.82;3.42;;;1.90;91.60;;;;;;5033239;28;20029;-81
2022/01/12 04:23:18;;;;;;;5.05;3.35;;;1.90;91.60;;;;;;5016125;28;20025;-80
2022/01/12 04:25:47;;;;;;;4.13;3.17;;;1.90;91.60;;;;;;5025082;28;20132;-81
2022/01/12 04:28:13;;;;;;;5.97;3.78;;;1.90;91.60;;;;;;5025111;28;20070;-81
2022/01/12 04:30:39;;;;;;;4.43;3.70;;;1.90;92.00;;;;;;5020136;28;20325;-81
2022/01/12 04:33:05;;;;;;;6.07;3.88;;;2.00;91.70;;;;;;5025230;28;20033;-81
2022/01/12 04:35:34;;;;;;;6.20;3.78;;;1.90;91.60;;;;;;5026435;28;20037;-81
2022/01/12 04:38:00;;;;;;;6.78;4.25;;;2.00;92.10;;;;;;5029586;28;20048;-81
2022/01/12 04:40:26;;;;;;;7.60;4.45;;;2.00;91.70;;;;;;5019776;28;20033;-81
2022/01/12 04:42:53;;;;;;;10.57;6.32;;;2.00;91.70;;;;;;5002388;28;20033;-81
2022/01/12 04:45:37;;;;;;;7.45;5.22;;;2.00;91.70;;;;;;4982215;28;20033;-81
2022/01/12 04:50:41;;;;;;;7.72;5.18;;;1.90;91.70;;;;;;5033964;28;20039;-81
2022/01/12 04:53:13;;;;;;;7.13;4.40;;;1.90;91.70;;;;;;5026822;28;20047;-81
2022/01/12 04:55:39;;;;;;;5.82;3.70;;;1.90;91.70;;;;;;4999377;28;20033;-81
2022/01/12 04:58:05;;;;;;;9.23;4.97;;;1.90;91.70;;;;;;5014300;28;20069;-81
2022/01/12 05:00:32;;;;;;;6.00;3.95;;;1.90;91.70;;;;;;5026274;28;20044;-81
2022/01/12 05:13:44;;;;;;;5.93;3.77;;;1.70;91.70;;;;;;5005516;28;20040;-81
2022/01/12 05:16:10;;;;;;;7.18;4.35;;;1.70;91.70;;;;;;5002503;28;20056;-81
2022/01/12 05:18:36;;;;;;;6.70;4.53;;;1.70;91.70;;;;;;5011208;28;20028;-81
2022/01/12 05:21:02;;;;;;;7.35;4.55;;;1.70;91.70;;;;;;5000148;28;20033;-81
2022/01/12 05:23:28;;;;;;;6.20;4.28;;;1.60;91.70;;;;;;5029192;28;20124;-81
2022/01/12 05:25:56;;;;;;;5.78;3.67;;;1.60;91.70;;;;;;4990663;28;20111;-81
2022/01/12 05:28:22;;;;;;;4.03;3.30;;;1.60;91.70;;;;;;5012691;28;20388;-81
2022/01/12 05:30:48;;;;;;;4.93;3.40;;;1.60;91.80;;;;;;5011746;28;20168;-81
2022/01/12 05:33:14;;;;;;;5.35;3.80;;;1.50;91.70;;;;;;4989658;28;20049;-81
2022/01/12 05:35:41;;;;;;;5.55;3.60;;;1.50;91.70;;;;;;5017020;28;20530;-81
2022/01/12 05:38:12;;;;;;;5.53;3.85;;;1.50;91.80;;;;;;5022003;28;20084;-81
2022/01/12 05:40:38;;;;;;;5.10;3.22;;;1.50;91.80;;;;;;5004559;28;20043;-81
2022/01/12 05:43:03;;;;;;;4.80;3.25;;;1.50;91.80;;;;;;5045128;28;20063;-81
2022/01/12 05:45:32;;;;;;;6.00;4.10;;;1.50;91.80;;;;;;5014134;28;20449;-81
2022/01/12 05:50:23;;;;;;;5.97;3.38;;;1.40;91.80;;;;;;5035323;28;20029;-81
2022/01/12 05:52:49;;;;;;;3.85;2.95;;;1.40;91.80;;;;;;5018123;28;20116;-81
2022/01/12 05:55:14;;;;;;;7.45;4.28;;;1.40;91.80;;;;;;5012691;28;20056;-81
2022/01/12 05:57:41;;;;;;;4.93;3.53;;;1.40;91.80;;;;;;5033697;28;20037;-81
2022/01/12 06:00:12;;;;;;;5.32;3.53;;;1.40;91.80;;;;;;5039192;28;21016;-81
2022/01/12 06:02:37;;;;;;;4.50;3.22;;;1.30;91.80;;;;;;5020709;28;20387;-81
2022/01/12 06:05:03;;;;;;;6.97;3.45;;;1.30;91.80;;;;;;5008520;28;20032;-82
2022/01/12 06:07:29;;;;;;;4.88;3.40;;;1.30;91.80;;;;;;5039348;28;20029;-81
2022/01/12 06:09:55;;;;;;;4.60;3.25;;;1.30;91.80;;;;;;5019563;28;20043;-83
2022/01/12 06:12:20;;;;;;;4.78;3.00;;;1.30;91.80;;;;;;5010033;28;20144;-81
2022/01/12 06:14:46;;;;;;;5.13;2.88;;;1.30;91.90;;;;;;5044360;28;20514;-82
2022/01/12 06:17:11;;;;;;;4.00;2.95;;;1.30;91.80;;;;;;5039172;28;20040;-81
2022/01/12 06:19:38;;;;;;;4.20;3.08;;;1.30;91.90;;;;;;5040152;28;20032;-81
2022/01/12 06:22:03;;;;;;;5.43;3.28;;;1.30;91.90;;;;;;5007931;28;20119;-81
2022/01/12 06:24:29;;;;;;;4.47;3.10;;;1.30;91.90;;;;;;5022418;28;20057;-81
2022/01/12 06:26:58;;;;;;;3.92;3.30;;;1.30;91.80;;;;;;5023539;28;20504;-81
2022/01/12 06:29:28;;;;;;;5.07;3.60;;;1.30;91.90;;;;;;5044720;28;20037;-81
2022/01/12 06:31:55;;;;;;;8.80;3.55;;;1.20;92.20;;;;;;5017345;28;20057;-81
2022/01/12 06:34:20;;;;;;;4.68;3.35;;;1.20;91.90;;;;;;5038849;28;20256;-82
2022/01/12 06:36:46;;;;;;;5.63;3.40;;;1.20;91.90;;;;;;5031317;28;20111;-82
2022/01/12 06:39:17;;;;;;;5.65;3.33;;;1.20;91.90;;;;;;5025710;28;20040;-81
2022/01/12 06:41:43;;;;;;;5.68;3.22;;;1.20;91.90;;;;;;5034222;28;20040;-81
2022/01/12 06:44:08;;;;;;;4.63;2.88;;;1.20;91.90;;;;;;5045483;28;20041;-81
2022/01/12 06:46:35;;;;;;;6.30;3.65;;;1.20;91.90;;;;;;5048420;28;20062;-81
2022/01/12 06:49:01;;;;;;;4.53;3.20;;;1.20;91.90;;;;;;5028846;28;20396;-81
2022/01/12 06:51:26;;;;;;;4.40;3.40;;;1.20;92.00;;;;;;5014293;28;20075;-81
2022/01/12 06:53:55;;;;;;;6.43;3.70;;;1.20;92.00;;;;;;5037949;28;20523;-81
2022/01/12 06:56:21;;;;;;;4.85;3.25;;;1.20;92.00;;;;;;5068552;28;20055;-81
2022/01/12 06:58:47;;;;;;;5.32;3.45;;;1.20;92.00;;;;;;5031246;28;20045;-81
2022/01/12 07:01:13;;;;;;;5.50;3.50;;;1.20;92.00;;;;;;5027243;28;20036;-81
2022/01/12 07:03:38;;;;;;;7.07;4.25;;;1.20;92.00;;;;;;5010922;28;20021;-80
2022/01/12 07:06:04;;;;;;;4.03;3.10;;;1.20;92.00;;;;;;5028492;28;20422;-80
2022/01/12 07:08:32;;;;;;;4.57;3.47;;;1.20;92.00;;;;;;5026018;28;20037;-81
2022/01/12 07:10:57;;;;;;;6.00;3.72;;;1.20;92.00;;;;;;5006411;28;20045;-80
2022/01/12 07:13:23;;;;;;;7.30;3.67;;;1.20;92.00;;;;;;5029266;28;20076;-81
2022/01/12 07:15:48;;;;;;;6.07;3.50;;;1.20;92.00;;;;;;5014933;28;20124;-80
2022/01/12 07:18:14;;;;;;;5.90;3.20;;;1.20;92.00;;;;;;5036266;28;20167;-80
2022/01/12 07:20:40;;;;;;;4.00;3.15;;;1.20;92.00;;;;;;5012595;28;20037;-80
2022/01/12 07:23:05;;;;;;;6.75;3.15;;;1.20;92.00;;;;;;5006739;28;20108;-80
2022/01/12 07:25:31;;;;;;;5.22;3.10;;;1.20;92.00;;;;;;5004676;28;20139;-80
2022/01/12 07:27:56;;;;;;;4.72;2.92;;;1.20;92.00;;;;;;5003043;28;20030;-80
2022/01/12 07:30:24;;;;;;;4.10;3.00;;;1.10;92.00;;;;;;4990241;28;20029;-80
2022/01/12 07:32:50;;;;;;;5.13;3.33;;;1.10;92.00;;;;;;5010669;28;20650;-80
2022/01/12 07:35:15;;;;;;;4.75;3.08;;;1.10;92.00;;;;;;5018312;28;20045;-80
2022/01/12 07:37:41;;;;;;;5.07;3.40;;;1.10;92.00;;;;;;5008586;28;20038;-80
2022/01/12 07:40:07;;;;;;;4.32;3.25;;;1.10;92.10;;;;;;5008397;28;20034;-81
2022/01/12 07:42:33;;;;;;;3.83;2.80;;;1.10;92.10;;;;;;4995775;28;20466;-80
2022/01/12 07:45:00;;;;;;;6.25;4.65;;;1.10;92.10;;;;;;4971005;28;20121;-80
2022/01/12 07:47:29;;;;;;;5.53;3.95;;;1.10;92.10;;;;;;4993884;28;20488;-80
2022/01/12 07:49:55;;;;;;;6.47;3.78;;;1.10;92.10;;;;;;4998753;28;20860;-80
2022/01/12 07:52:20;;;;;;;5.95;4.15;;;1.10;92.10;;;;;;5002729;28;20032;-80
2022/01/12 07:54:46;;;;;;;6.05;4.50;;;1.10;92.10;;;;;;5016308;28;20034;-80
2022/01/12 07:57:12;;;;;;;6.70;4.50;;;1.00;92.10;;;;;;5003594;28;20565;-79
2022/01/12 07:59:37;;;;;;;7.70;4.55;;;1.00;92.10;;;;;;5009432;28;20029;-80
2022/01/12 08:02:03;;;;;;;6.00;4.15;;;1.00;92.10;;;;;;4991052;28;20026;-80
2022/01/12 08:04:28;;;;;;;9.32;4.32;;;1.00;92.10;;;;;;5015167;28;20029;-80
2022/01/12 08:06:54;;;;;;;5.32;3.70;;;1.00;92.10;;;;;;4993206;28;20074;-80
2022/01/12 08:09:19;;;;;;;5.28;3.47;;;1.00;92.10;;;;;;4997358;28;20563;-80
2022/01/12 08:11:45;;;;;;;9.18;5.05;;;1.00;92.20;;;;;;5003079;28;20168;-80
2022/01/12 08:14:11;;;;;;;5.97;4.05;;;1.00;92.20;;;;;;5003919;28;20079;-81
2022/01/12 08:16:36;;;;;;;11.52;5.78;;;1.10;92.20;;;;;;4996674;28;20038;-81
2022/01/12 08:19:02;;;;;;;7.93;4.63;;;1.10;92.30;;;;;;4985605;28;20033;-81
2022/01/12 08:21:29;;;;;;;8.18;4.57;;;1.10;92.20;;;;;;4996785;28;20044;-81
2022/01/12 08:23:55;;;;;;;5.47;4.03;;;1.20;92.30;;;;;;5024669;28;20620;-81
2022/01/12 08:26:20;;;;;;;9.07;5.30;;;1.20;92.30;;;;;;5002175;28;20037;-81
2022/01/12 08:28:46;;;;;;;17.70;9.27;;;1.20;92.30;;;;;;5006263;28;20037;-81
2022/01/12 08:31:11;;;;;;;25.85;13.57;;;1.30;92.30;;;;;;4968901;28;20060;-81
2022/01/12 08:33:37;;;;;;;21.27;11.35;;;1.20;92.30;;;;;;4993190;28;20511;-81
2022/01/12 08:36:03;;;;;;;19.33;9.60;;;1.30;92.30;;;;;;5019937;28;20037;-81
2022/01/12 08:38:28;;;;;;;14.82;8.05;;;1.30;92.30;;;;;;4992792;28;20684;-81
2022/01/12 08:40:54;;;;;;;21.50;10.10;;;1.30;92.30;;;;;;5001239;28;20044;-82
2022/01/12 08:43:20;;;;;;;9.75;6.78;;;1.40;92.30;;;;;;5003307;28;20034;-81
2022/01/12 08:45:45;;;;;;;12.70;6.90;;;1.40;92.30;;;;;;5017243;28;20454;-81
2022/01/12 08:48:11;;;;;;;10.75;6.60;;;1.40;92.30;;;;;;5016485;28;20648;-82
2022/01/12 08:50:36;;;;;;;11.95;7.85;;;1.50;92.40;;;;;;5015126;28;20029;-81
2022/01/12 08:53:02;;;;;;;19.15;11.00;;;1.50;92.40;;;;;;5002653;28;20021;-81
2022/01/12 08:55:27;;;;;;;11.85;7.85;;;1.50;92.30;;;;;;5011992;28;20091;-81
2022/01/12 08:57:53;;;;;;;9.73;6.32;;;1.50;92.30;;;;;;5023513;28;20711;-81
2022/01/12 09:00:18;;;;;;;10.55;7.82;;;1.50;92.30;;;;;;4982151;28;20064;-81
2022/01/12 09:02:44;;;;;;;15.32;9.60;;;1.60;92.40;;;;;;4991607;28;20155;-81
2022/01/12 09:05:11;;;;;;;15.68;10.07;;;1.60;92.40;;;;;;5004573;28;20032;-81
2022/01/12 09:07:37;;;;;;;15.43;9.93;;;1.70;92.40;;;;;;5013607;28;20460;-81
2022/01/12 09:10:03;;;;;;;18.10;10.57;;;1.80;92.40;;;;;;5015796;28;20075;-81
2022/01/12 09:12:29;;;;;;;13.85;10.15;;;1.90;92.40;;;;;;5009137;28;20044;-81
2022/01/12 09:14:54;;;;;;;14.02;8.57;;;1.90;92.40;;;;;;4995429;28;20091;-81
2022/01/12 09:17:21;;;;;;;10.40;6.82;;;2.00;92.40;;;;;;5031912;28;20060;-81
2022/01/12 09:19:47;;;;;;;11.68;7.00;;;2.10;92.40;;;;;;5003742;28;20112;-82
2022/01/12 09:22:13;;;;;;;11.70;6.65;;;2.20;92.40;;;;;;5025222;28;20061;-82
2022/01/12 09:24:38;;;;;;;11.25;6.45;;;2.30;92.40;;;;;;5025511;28;20430;-81
2022/01/12 09:27:04;;;;;;;11.60;6.13;;;2.40;92.50;;;;;;5032645;28;20487;-82
2022/01/12 09:29:30;;;;;;;10.18;6.00;;;2.50;92.50;;;;;;5030187;28;20045;-81
2022/01/12 09:31:55;;;;;;;12.57;6.80;;;2.60;92.50;;;;;;5007593;28;20664;-82
2022/01/12 09:34:21;;;;;;;10.18;7.07;;;2.70;92.40;;;;;;5029983;28;20139;-82
2022/01/12 09:36:46;;;;;;;10.90;6.60;;;2.70;92.40;;;;;;5014761;28;20066;-81
2022/01/12 09:39:13;;;;;;;11.43;6.93;;;2.70;92.30;;;;;;5034773;28;20059;-81
2022/01/12 09:41:38;;;;;;;13.63;8.43;;;2.80;92.40;;;;;;5020142;28;20535;-81
2022/01/12 09:44:04;;;;;;;12.27;7.25;;;2.90;92.40;;;;;;5029110;28;20110;-82
2022/01/12 09:46:30;;;;;;;12.88;8.55;;;2.90;92.40;;;;;;5016600;28;20040;-82
2022/01/12 09:48:56;;;;;;;25.85;14.13;;;3.00;92.40;;;;;;5022156;28;20062;-82
2022/01/12 09:51:22;;;;;;;22.80;11.50;;;3.00;92.40;;;;;;5070117;28;20669;-81
2022/01/12 09:53:49;;;;;;;19.38;9.63;;;3.00;92.30;;;;;;5014607;28;20052;-81
2022/01/12 09:56:24;;;;;;;13.50;8.50;;;3.00;92.20;;;;;;5030015;28;20499;-82
2022/01/12 09:58:51;;;;;;;14.07;7.90;;;3.10;92.20;;;;;;5020442;28;20054;-81
2022/01/12 10:01:33;;;;;;;13.73;8.05;;;3.20;92.30;;;;;;5028190;28;20030;-81
2022/01/12 10:04:26;;;;;;;15.52;7.43;;;3.30;92.30;;;;;;4989171;28;20034;-81
2022/01/12 10:06:53;;;;;;;13.35;7.80;;;3.50;92.40;;;;;;5020983;28;20049;-82
2022/01/12 10:09:24;;;;;;;11.48;7.28;;;3.60;92.30;;;;;;5008615;28;20320;-81
2022/01/12 10:11:57;;;;;;;11.73;7.63;;;3.70;92.30;;;;;;5022476;28;20042;-81
2022/01/12 10:14:23;;;;;;;12.40;7.30;;;3.90;92.30;;;;;;5022539;28;20040;-82
2022/01/12 10:16:50;;;;;;;10.93;6.85;;;4.00;92.20;;;;;;5041896;28;20036;-82
2022/01/12 10:19:30;;;;;;;9.25;5.93;;;4.10;92.10;;;;;;5022501;28;20088;-82
2022/01/12 10:21:57;;;;;;;8.23;5.22;;;4.10;91.90;;;;;;5048529;28;20039;-82
2022/01/12 10:24:24;;;;;;;10.35;6.70;;;4.20;91.90;;;;;;5000676;28;20030;-82
2022/01/12 10:26:51;;;;;;;6.60;4.82;;;4.20;91.80;;;;;;5008832;28;20058;-82
2022/01/12 10:29:22;;;;;;;7.85;4.80;;;4.30;91.70;;;;;;5055584;28;20080;-82
2022/01/12 10:31:56;;;;;;;8.13;5.30;;;4.40;91.60;;;;;;5034357;28;20060;-82
2022/01/12 10:34:39;;;;;;;8.15;5.07;;;4.40;91.50;;;;;;5026923;28;20034;-82
2022/01/12 10:37:09;;;;;;;7.63;5.00;;;4.60;91.40;;;;;;4998217;28;20049;-82
2022/01/12 10:39:38;;;;;;;6.85;4.68;;;4.70;91.50;;;;;;4987206;28;20504;-82
2022/01/12 10:42:08;;;;;;;6.13;4.78;;;4.90;91.50;;;;;;5008608;28;20128;-81
2022/01/12 10:44:35;;;;;;;7.40;5.15;;;5.10;91.30;;;;;;4991820;28;20029;-81
2022/01/12 10:47:21;;;;;;;9.63;5.00;;;5.20;91.20;;;;;;4994463;28;20054;-82
2022/01/12 10:49:52;;;;;;;7.22;4.57;;;5.40;91.20;;;;;;4993503;28;20053;-82
2022/01/12 10:52:18;;;;;;;7.75;5.03;;;5.60;91.10;;;;;;5015401;28;20041;-82
2022/01/12 10:54:56;;;;;;;6.45;4.60;;;5.70;91.00;;;;;;5002154;28;20033;-82
2022/01/12 10:57:36;;;;;;;5.72;4.00;;;5.90;90.90;;;;;;5043144;28;20113;-82
2022/01/12 11:00:21;;;;;;;5.95;4.30;;;6.10;90.70;;;;;;4985532;28;20033;-81
2022/01/12 11:02:55;;;;;;;5.68;4.07;;;6.30;90.70;;;;;;5005827;28;20033;-82
2022/01/12 11:05:22;;;;;;;4.95;3.15;;;6.40;90.60;;;;;;4972374;28;20044;-82
2022/01/12 11:07:48;;;;;;;4.78;3.40;;;6.60;90.40;;;;;;4991385;28;20041;-82
2022/01/12 11:10:14;;;;;;;4.88;3.53;;;6.70;90.20;;;;;;5008325;28;20029;-82
2022/01/12 11:12:39;;;;;;;5.22;3.67;;;6.70;89.90;;;;;;4996075;28;20048;-82
2022/01/12 11:15:09;;;;;;;5.80;4.00;;;6.80;89.70;;;;;;4978378;28;20036;-82
2022/01/12 11:17:35;;;;;;;6.38;4.00;;;6.80;89.10;;;;;;5010229;28;20245;-82
2022/01/12 11:20:11;;;;;;;6.05;3.90;;;6.90;89.10;;;;;;4990006;28;20541;-82
2022/01/12 11:22:43;;;;;;;5.95;4.20;;;6.90;88.80;;;;;;5002406;28;20033;-82
2022/01/12 11:25:26;;;;;;;14.40;8.07;;;7.00;89.20;;;;;;5010044;28;20438;-82
2022/01/12 11:28:21;;;;;;;14.18;8.75;;;7.10;88.40;;;;;;5006202;28;20225;-82
2022/01/12 11:30:59;;;;;;;9.15;5.75;;;7.30;88.70;;;;;;5009393;28;20129;-82
2022/01/12 11:33:34;;;;;;;7.03;4.72;;;7.40;88.80;;;;;;5001083;28;20037;-81
2022/01/12 11:36:04;;;;;;;5.65;3.92;;;7.60;88.20;;;;;;5001476;28;20049;-82
2022/01/12 11:38:33;;;;;;;8.50;4.82;;;7.70;88.20;;;;;;4996708;28;20048;-82
2022/01/12 11:41:17;;;;;;;7.38;4.70;;;7.80;87.60;;;;;;5018608;28;20030;-81
2022/01/12 11:43:43;;;;;;;6.45;4.32;;;7.80;86.40;;;;;;5010444;28;20041;-82
2022/01/12 11:46:11;;;;;;;7.70;4.68;;;7.90;87.10;;;;;;5002116;28;20040;-82
2022/01/12 11:48:54;;;;;;;6.53;4.75;;;8.00;87.00;;;;;;4989262;28;20041;-82
2022/01/12 11:51:35;;;;;;;5.55;3.90;;;8.10;86.70;;;;;;5003256;28;20119;-82
2022/01/12 11:54:11;;;;;;;7.40;4.50;;;8.30;86.20;;;;;;5013682;28;20029;-82
2022/01/12 11:56:38;;;;;;;6.38;4.50;;;8.40;86.30;;;;;;5003867;28;20118;-82
2022/01/12 11:59:10;;;;;;;6.10;4.22;;;8.50;86.00;;;;;;5000170;28;20100;-82
2022/01/12 12:01:49;;;;;;;5.15;3.97;;;8.70;85.60;;;;;;4989382;28;20032;-82
2022/01/12 12:04:29;;;;;;;7.38;3.90;;;8.80;85.00;;;;;;5000790;28;20033;-82
2022/01/12 12:07:11;;;;;;;6.18;4.20;;;8.90;84.70;;;;;;5031013;28;20034;-82
2022/01/12 12:09:39;;;;;;;5.03;3.90;;;9.00;84.60;;;;;;4985239;28;20129;-82
2022/01/12 12:12:11;;;;;;;5.53;4.30;;;9.10;84.90;;;;;;4986656;28;20096;-82
2022/01/12 12:14:36;;;;;;;7.55;4.20;;;9.20;84.40;;;;;;5008770;28;20025;-82
2022/01/12 12:17:03;;;;;;;4.70;3.55;;;9.20;84.50;;;;;;5002879;28;20025;-82
2022/01/12 12:19:29;;;;;;;4.38;3.70;;;9.30;84.60;;;;;;4976827;28;20586;-82
2022/01/12 12:21:55;;;;;;;4.55;4.00;;;9.40;84.10;;;;;;4947883;28;20041;-81
2022/01/12 12:24:20;;;;;;;5.72;4.18;;;9.50;83.60;;;;;;5000786;28;20033;-81
2022/01/12 12:26:47;;;;;;;4.95;3.53;;;9.40;83.30;;;;;;4995674;28;20523;-82
2022/01/12 12:29:23;;;;;;;4.80;3.65;;;9.50;83.40;;;;;;5026420;28;20116;-82
2022/01/12 12:31:49;;;;;;;4.50;3.65;;;9.60;82.90;;;;;;4978193;28;20037;-82
2022/01/12 12:34:14;;;;;;;6.35;4.20;;;9.70;82.90;;;;;;4980805;28;20111;-82
2022/01/12 12:36:40;;;;;;;6.97;3.90;;;9.70;82.50;;;;;;5007407;28;20609;-82
2022/01/12 12:39:10;;;;;;;5.80;3.53;;;9.70;81.70;;;;;;5011511;28;20039;-82
2022/01/12 12:41:40;;;;;;;7.15;4.63;;;9.70;81.20;;;;;;5026798;28;20227;-82
2022/01/12 12:44:06;;;;;;;8.38;4.75;;;9.70;80.40;;;;;;5000528;28;20084;-82
2022/01/12 12:46:32;;;;;;;4.47;3.38;;;9.80;80.60;;;;;;5013467;28;20041;-81
2022/01/12 12:48:57;;;;;;;5.18;3.88;;;9.90;80.70;;;;;;5007949;28;20029;-83
2022/01/12 12:51:23;;;;;;;7.40;3.90;;;10.00;80.50;;;;;;4988118;28;20040;-82
2022/01/12 12:53:52;;;;;;;8.15;5.80;;;10.00;80.40;;;;;;5018791;28;20037;-81
2022/01/12 12:56:20;;;;;;;7.93;3.95;;;10.10;80.30;;;;;;5028945;28;20041;-83
2022/01/12 12:58:52;;;;;;;10.93;7.45;;;10.20;79.90;;;;;;5009067;28;20026;-83
2022/01/12 13:01:18;;;;;;;8.13;4.55;;;10.20;79.50;;;;;;4999884;28;20022;-82
2022/01/12 13:03:49;;;;;;;16.52;9.48;;;10.30;79.70;;;;;;5008052;28;20030;-83
2022/01/12 13:06:34;;;;;;;23.60;11.90;;;10.30;79.20;;;;;;5034165;28;20037;-81
2022/01/12 13:09:07;;;;;;;56.42;30.35;;;10.30;79.00;;;;;;4993643;28;20029;-82
2022/01/12 13:11:34;;;;;;;7.35;5.18;;;10.30;79.10;;;;;;5003712;28;20128;-81
2022/01/12 13:14:22;;;;;;;89.88;35.03;;;10.30;78.60;;;;;;5011001;28;20029;-83
2022/01/12 13:16:52;;;;;;;238.73;79.93;;;10.30;78.50;;;;;;5031311;28;20033;-82
2022/01/12 13:22:36;;;;;;;16.20;7.88;;;10.30;78.30;;;;;;5028757;28;20071;-81
2022/01/12 13:25:12;;;;;;;34.60;16.30;;;10.40;78.70;;;;;;4999140;28;20033;-83
2022/01/12 13:27:38;;;;;;;10.07;6.15;;;10.50;79.10;;;;;;5018807;28;20029;-82
2022/01/12 13:30:06;;;;;;;8.55;5.95;;;10.60;78.50;;;;;;5017504;28;20399;-81
2022/01/12 13:32:32;;;;;;;5.82;4.18;;;10.60;78.20;;;;;;4998782;28;20029;-80
2022/01/12 13:35:00;;;;;;;15.57;11.05;;;10.70;78.40;;;;;;5023229;28;20045;-82
2022/01/12 13:37:25;;;;;;;4.68;3.97;;;10.80;78.30;;;;;;5001138;28;20439;-82
2022/01/12 13:40:07;;;;;;;7.80;6.50;;;10.90;77.30;;;;;;5007725;28;20715;-83
2022/01/12 13:42:33;;;;;;;7.03;4.90;;;10.80;77.20;;;;;;4993621;28;20029;-81
2022/01/12 13:45:07;;;;;;;8.00;5.40;;;10.90;77.80;;;;;;5006144;28;20040;-83
2022/01/12 13:47:37;;;;;;;5.93;4.03;;;11.10;77.40;;;;;;4989346;28;20162;-82
2022/01/12 13:50:07;;;;;;;5.68;4.30;;;11.10;77.50;;;;;;5021523;28;20032;-82
2022/01/12 13:52:32;;;;;;;6.15;4.60;;;11.10;76.80;;;;;;4974032;28;20792;-83
2022/01/12 13:55:10;;;;;;;7.78;4.20;;;11.20;77.00;;;;;;5033675;28;20041;-82
2022/01/12 13:57:36;;;;;;;5.20;3.60;;;11.20;76.70;;;;;;4994280;28;20072;-80
2022/01/12 14:00:02;;;;;;;4.07;3.47;;;11.20;77.00;;;;;;5038278;28;20091;-83
2022/01/12 14:02:30;;;;;;;3.95;3.40;;;11.20;77.10;;;;;;4987326;28;20064;-81
2022/01/12 14:05:06;;;;;;;4.93;3.47;;;11.20;76.90;;;;;;4996499;28;20828;-83
2022/01/12 14:07:36;;;;;;;5.90;4.10;;;11.20;76.60;;;;;;4982274;28;20048;-82
2022/01/12 14:10:03;;;;;;;5.43;3.25;;;11.20;76.20;;;;;;5003090;28;20034;-82
2022/01/12 14:12:28;;;;;;;4.82;3.47;;;11.10;75.50;;;;;;4978544;28;20037;-82
2022/01/12 14:15:02;;;;;;;5.38;3.70;;;11.00;75.70;;;;;;5007403;28;20033;-81
2022/01/12 14:17:39;;;;;;;7.07;3.90;;;10.80;74.70;;;;;;4990357;28;20041;-82
2022/01/12 14:20:10;;;;;;;3.67;3.15;;;10.60;74.10;;;;;;5016159;28;20113;-80